QLK1938 YPAD-YBBN
Flight info
| Callsign | QLK1938 |
|---|---|
| Flight time | N/A |
| Altitude | 39000 |
| Route | UPROT Y27 IGIPA Y46 EMTID Y27 EDPEG/N0456F370 Y27 ENLIP |
| Aircraft | E190/M-SDGHIRWYZ/EB1 |
Departure
| Time | 2025-09-10 11:26 |
|---|---|
| Airport | Adelaide International Airport (YPAD) |
Arrival
| Time | N/A |
|---|---|
| Airport | Brisbane International Airport (YBBN) |
| Time | Latitude | Longitude | Altitude | Speed | Heading |
|---|---|---|---|---|---|
| 2025-09-10 10:44 | -34.94057 | 138.53661 | 38 ft | 0 kts | 320° |
| 2025-09-10 11:17 | -34.94064 | 138.53668 | 38 ft | 2 kts | 320° |
| 2025-09-10 11:17 | -34.94087 | 138.53691 | 38 ft | 2 kts | 320° |
| 2025-09-10 11:18 | -34.94103 | 138.53714 | 38 ft | 2 kts | 293° |
| 2025-09-10 11:18 | -34.94105 | 138.53749 | 38 ft | 2 kts | 255° |
| 2025-09-10 11:18 | -34.94099 | 138.53766 | 38 ft | 2 kts | 236° |
| 2025-09-10 11:19 | -34.94095 | 138.53772 | 38 ft | 0 kts | 230° |
| 2025-09-10 11:21 | -34.94101 | 138.53764 | 38 ft | 2 kts | 230° |
| 2025-09-10 11:21 | -34.94157 | 138.53679 | 38 ft | 10 kts | 230° |
| 2025-09-10 11:22 | -34.94242 | 138.53725 | 36 ft | 11 kts | 54° |
| 2025-09-10 11:22 | -34.94132 | 138.53889 | 38 ft | 12 kts | 50° |
| 2025-09-10 11:22 | -34.94072 | 138.53975 | 38 ft | 13 kts | 49° |
| 2025-09-10 11:23 | -34.93978 | 138.54224 | 39 ft | 9 kts | 141° |
| 2025-09-10 11:23 | -34.94032 | 138.54275 | 39 ft | 10 kts | 141° |
| 2025-09-10 11:24 | -34.95039 | 138.52907 | 38 ft | 145 kts | 229° |
| 2025-09-10 11:25 | -34.95677 | 138.51976 | 507 ft | 145 kts | 228° |
| 2025-09-10 11:25 | -34.96897 | 138.50058 | 1703 ft | 147 kts | 230° |
| 2025-09-10 11:26 | -34.98390 | 138.47714 | 2468 ft | 216 kts | 227° |
| 2025-09-10 11:26 | -35.00550 | 138.44675 | 4201 ft | 247 kts | 226° |
| 2025-09-10 11:27 | -35.03025 | 138.41844 | 6351 ft | 251 kts | 198° |
| 2025-09-10 11:27 | -35.06282 | 138.42897 | 8380 ft | 263 kts | 145° |
| 2025-09-10 11:28 | -35.09174 | 138.45599 | 10319 ft | 269 kts | 145° |
| 2025-09-10 11:28 | -35.10707 | 138.49728 | 12053 ft | 297 kts | 89° |
| 2025-09-10 11:29 | -35.10333 | 138.55028 | 13267 ft | 325 kts | 89° |
| 2025-09-10 11:29 | -35.09655 | 138.60539 | 14931 ft | 342 kts | 67° |
| 2025-09-10 11:30 | -35.06605 | 138.65071 | 16621 ft | 354 kts | 50° |
| 2025-09-10 11:30 | -35.03261 | 138.69530 | 18173 ft | 362 kts | 50° |
| 2025-09-10 11:31 | -34.99823 | 138.74106 | 19718 ft | 371 kts | 50° |
| 2025-09-10 11:31 | -34.98083 | 138.76421 | 20454 ft | 376 kts | 50° |
| 2025-09-10 11:32 | -34.92691 | 138.83581 | 22663 ft | 389 kts | 51° |
| 2025-09-10 11:32 | -34.87137 | 138.90942 | 24735 ft | 401 kts | 51° |
| 2025-09-10 11:33 | -34.83326 | 138.95982 | 25951 ft | 410 kts | 51° |
| 2025-09-10 11:35 | -34.69308 | 139.14462 | 29736 ft | 439 kts | 51° |
| 2025-09-10 11:37 | -34.53249 | 139.42156 | 33186 ft | 453 kts | 72° |
| 2025-09-10 11:39 | -34.45273 | 139.67264 | 35406 ft | 461 kts | 70° |
| 2025-09-10 11:41 | -34.34754 | 140.00043 | 37632 ft | 468 kts | 68° |
| 2025-09-10 11:43 | -34.26453 | 140.25662 | 39099 ft | 473 kts | 68° |
| 2025-09-10 11:45 | -34.16442 | 140.56277 | 39107 ft | 498 kts | 68° |
| 2025-09-10 11:47 | -34.06178 | 140.87347 | 39096 ft | 499 kts | 67° |
| 2025-09-10 11:49 | -33.95838 | 141.18338 | 39078 ft | 501 kts | 67° |
| 2025-09-10 11:51 | -33.85405 | 141.49303 | 39067 ft | 499 kts | 66° |
| 2025-09-10 11:53 | -33.74883 | 141.80222 | 39047 ft | 501 kts | 66° |
| 2025-09-10 11:54 | -33.65863 | 142.07466 | 39049 ft | 501 kts | 66° |
| 2025-09-10 11:57 | -33.54216 | 142.42371 | 39031 ft | 503 kts | 66° |
| 2025-09-10 11:58 | -33.45073 | 142.69502 | 39015 ft | 502 kts | 65° |
| 2025-09-10 12:01 | -33.33215 | 143.04347 | 39015 ft | 504 kts | 65° |
| 2025-09-10 12:02 | -33.23877 | 143.31522 | 39024 ft | 507 kts | 65° |
| 2025-09-10 12:05 | -33.11767 | 143.66428 | 39003 ft | 508 kts | 64° |
| 2025-09-10 12:07 | -33.00847 | 143.97584 | 38988 ft | 508 kts | 64° |
| 2025-09-10 12:09 | -32.84489 | 144.29735 | 38979 ft | 504 kts | 54° |
| 2025-09-10 12:10 | -32.73338 | 144.50975 | 38961 ft | 508 kts | 53° |
| 2025-09-10 12:13 | -32.56432 | 144.82947 | 38921 ft | 509 kts | 53° |
| 2025-09-10 12:15 | -32.41294 | 145.11345 | 38917 ft | 509 kts | 52° |
| 2025-09-10 12:17 | -32.24085 | 145.43368 | 38920 ft | 513 kts | 52° |
| 2025-09-10 12:19 | -32.10635 | 145.68208 | 38889 ft | 512 kts | 51° |
| 2025-09-10 12:21 | -31.93220 | 146.00136 | 38884 ft | 513 kts | 51° |
| 2025-09-10 12:23 | -31.79575 | 146.24962 | 38884 ft | 517 kts | 50° |
| 2025-09-10 12:25 | -31.61908 | 146.56871 | 38891 ft | 520 kts | 50° |
| 2025-09-10 12:27 | -31.48059 | 146.81700 | 38889 ft | 523 kts | 49° |
| 2025-09-10 12:29 | -31.30070 | 147.13719 | 38889 ft | 522 kts | 48° |
| 2025-09-10 12:31 | -31.15964 | 147.38641 | 38903 ft | 527 kts | 47° |
| 2025-09-10 12:33 | -30.97726 | 147.70628 | 38871 ft | 525 kts | 46° |
| 2025-09-10 12:35 | -30.83507 | 147.95387 | 38895 ft | 528 kts | 46° |
| 2025-09-10 12:37 | -30.65130 | 148.27148 | 38924 ft | 528 kts | 46° |
| 2025-09-10 12:39 | -30.50766 | 148.51802 | 38920 ft | 528 kts | 45° |
| 2025-09-10 12:41 | -30.34285 | 148.79901 | 38912 ft | 530 kts | 44° |
| 2025-09-10 12:43 | -30.17585 | 149.08171 | 38920 ft | 532 kts | 44° |
| 2025-09-10 12:45 | -30.00821 | 149.36353 | 38911 ft | 535 kts | 43° |
| 2025-09-10 12:47 | -29.83895 | 149.64613 | 38928 ft | 535 kts | 43° |
| 2025-09-10 12:49 | -29.66846 | 149.92871 | 38920 ft | 543 kts | 43° |
| 2025-09-10 12:51 | -29.50190 | 150.21817 | 38926 ft | 557 kts | 50° |
| 2025-09-10 12:53 | -29.35287 | 150.52840 | 38945 ft | 556 kts | 50° |
| 2025-09-10 12:55 | -29.20274 | 150.83835 | 38917 ft | 559 kts | 50° |
| 2025-09-10 12:57 | -29.05267 | 151.14587 | 38859 ft | 539 kts | 49° |
| 2025-09-10 12:59 | -28.90439 | 151.44742 | 34693 ft | 548 kts | 49° |
| 2025-09-10 13:01 | -28.72702 | 151.71317 | 30017 ft | 505 kts | 30° |
| 2025-09-10 13:03 | -28.53823 | 151.92584 | 25802 ft | 457 kts | 30° |
| 2025-09-10 13:03 | -28.49324 | 151.97632 | 24795 ft | 448 kts | 30° |
| 2025-09-10 13:03 | -28.47134 | 152.00089 | 24308 ft | 443 kts | 30° |
| 2025-09-10 13:04 | -28.40595 | 152.07413 | 22871 ft | 434 kts | 30° |
| 2025-09-10 13:05 | -28.36482 | 152.12015 | 21950 ft | 426 kts | 31° |
| 2025-09-10 13:05 | -28.33024 | 152.15877 | 21167 ft | 419 kts | 31° |
| 2025-09-10 13:06 | -28.28897 | 152.20482 | 20248 ft | 414 kts | 32° |
| 2025-09-10 13:06 | -28.24842 | 152.25005 | 19353 ft | 403 kts | 32° |
| 2025-09-10 13:07 | -28.20859 | 152.29439 | 18461 ft | 398 kts | 33° |
| 2025-09-10 13:07 | -28.18886 | 152.31635 | 18013 ft | 395 kts | 33° |
| 2025-09-10 13:07 | -28.14991 | 152.35967 | 17129 ft | 389 kts | 33° |
| 2025-09-10 13:08 | -28.09315 | 152.42268 | 15865 ft | 375 kts | 33° |
| 2025-09-10 13:09 | -28.05605 | 152.46381 | 15038 ft | 372 kts | 34° |
| 2025-09-10 13:09 | -28.01945 | 152.50436 | 14226 ft | 366 kts | 34° |
| 2025-09-10 13:10 | -27.98343 | 152.54423 | 13425 ft | 357 kts | 34° |
| 2025-09-10 13:10 | -27.94899 | 152.58489 | 12615 ft | 369 kts | 50° |
| 2025-09-10 13:11 | -27.92516 | 152.63640 | 11809 ft | 369 kts | 54° |
| 2025-09-10 13:11 | -27.91359 | 152.66196 | 11392 ft | 362 kts | 54° |
| 2025-09-10 13:11 | -27.89132 | 152.71107 | 10608 ft | 342 kts | 53° |
| 2025-09-10 13:12 | -27.86004 | 152.77988 | 9518 ft | 317 kts | 53° |
| 2025-09-10 13:13 | -27.83997 | 152.82390 | 9062 ft | 319 kts | 54° |
| 2025-09-10 13:13 | -27.80593 | 152.88596 | 8034 ft | 287 kts | 23° |
| 2025-09-10 13:14 | -27.78903 | 152.89664 | 7662 ft | 275 kts | 17° |
| 2025-09-10 13:14 | -27.75495 | 152.91620 | 6914 ft | 278 kts | 17° |
| 2025-09-10 13:15 | -27.71999 | 152.93610 | 6213 ft | 283 kts | 18° |
| 2025-09-10 13:15 | -27.70245 | 152.94617 | 5892 ft | 281 kts | 19° |
| 2025-09-10 13:15 | -27.66771 | 152.96611 | 5258 ft | 279 kts | 20° |
| 2025-09-10 13:16 | -27.61785 | 152.99483 | 4327 ft | 258 kts | 22° |
| 2025-09-10 13:17 | -27.58804 | 153.01231 | 3795 ft | 223 kts | 20° |
| 2025-09-10 13:17 | -27.56160 | 153.02734 | 3258 ft | 204 kts | 21° |
| 2025-09-10 13:18 | -27.53672 | 153.04155 | 3081 ft | 200 kts | 21° |
| 2025-09-10 13:18 | -27.51215 | 153.05566 | 2645 ft | 191 kts | 22° |
| 2025-09-10 13:19 | -27.48919 | 153.06908 | 2136 ft | 180 kts | 21° |
| 2025-09-10 13:19 | -27.47868 | 153.07515 | 2009 ft | 156 kts | 21° |
| 2025-09-10 13:19 | -27.45888 | 153.08603 | 1605 ft | 169 kts | 21° |